sensor_id;sensor_type;location;lat;lon;timestamp;pressure;altitude;pressure_sealevel;temperature;humidity
73151;BME280;61354;50.758;6.106;2023-07-30T00:01:14;98624.50;;;15.90;100.00
73151;BME280;61354;50.758;6.106;2023-07-30T00:03:39;98624.03;;;16.06;100.00
73151;BME280;61354;50.758;6.106;2023-07-30T00:06:06;98628.06;;;15.98;100.00
73151;BME280;61354;50.758;6.106;2023-07-30T00:08:31;98626.44;;;16.04;100.00
73151;BME280;61354;50.758;6.106;2023-07-30T00:10:57;98629.66;;;15.99;100.00
73151;BME280;61354;50.758;6.106;2023-07-30T00:13:24;98632.88;;;15.94;100.00
73151;BME280;61354;50.758;6.106;2023-07-30T00:15:49;98634.09;;;15.93;100.00
73151;BME280;61354;50.758;6.106;2023-07-30T00:18:15;98630.09;;;15.94;100.00
73151;BME280;61354;50.758;6.106;2023-07-30T00:20:41;98619.69;;;15.91;100.00
73151;BME280;61354;50.758;6.106;2023-07-30T00:23:06;98630.97;;;15.77;100.00
73151;BME280;61354;50.758;6.106;2023-07-30T00:25:32;98635.34;;;15.78;100.00
73151;BME280;61354;50.758;6.106;2023-07-30T00:27:58;98639.34;;;15.77;100.00
73151;BME280;61354;50.758;6.106;2023-07-30T00:30:23;98637.34;;;15.74;100.00
73151;BME280;61354;50.758;6.106;2023-07-30T00:32:49;98644.97;;;15.77;100.00
73151;BME280;61354;50.758;6.106;2023-07-30T00:35:14;98642.59;;;15.68;100.00
73151;BME280;61354;50.758;6.106;2023-07-30T00:37:40;98641.38;;;15.65;100.00
73151;BME280;61354;50.758;6.106;2023-07-30T00:40:06;98652.56;;;15.73;100.00
73151;BME280;61354;50.758;6.106;2023-07-30T00:42:31;98643.75;;;15.74;100.00
73151;BME280;61354;50.758;6.106;2023-07-30T00:44:57;98654.97;;;15.71;100.00
73151;BME280;61354;50.758;6.106;2023-07-30T00:47:23;98649.78;;;15.65;100.00
73151;BME280;61354;50.758;6.106;2023-07-30T00:49:49;98651.34;;;15.74;100.00
73151;BME280;61354;50.758;6.106;2023-07-30T00:52:19;98649.34;;;15.74;100.00
73151;BME280;61354;50.758;6.106;2023-07-30T00:54:46;98653.72;;;15.79;100.00
73151;BME280;61354;50.758;6.106;2023-07-30T00:57:13;98656.16;;;15.70;100.00
73151;BME280;61354;50.758;6.106;2023-07-30T00:59:39;98650.16;;;15.75;100.00
73151;BME280;61354;50.758;6.106;2023-07-30T01:02:04;98654.16;;;15.74;100.00
73151;BME280;61354;50.758;6.106;2023-07-30T01:04:30;98656.94;;;15.77;100.00
73151;BME280;61354;50.758;6.106;2023-07-30T01:06:56;98666.53;;;15.80;100.00
73151;BME280;61354;50.758;6.106;2023-07-30T01:09:22;98652.16;;;15.74;100.00
73151;BME280;61354;50.758;6.106;2023-07-30T01:11:48;98648.94;;;15.76;100.00
73151;BME280;61354;50.758;6.106;2023-07-30T01:14:14;98653.72;;;15.79;100.00
73151;BME280;61354;50.758;6.106;2023-07-30T01:16:41;98656.94;;;15.77;100.00
73151;BME280;61354;50.758;6.106;2023-07-30T01:19:07;98657.75;;;15.78;100.00
73151;BME280;61354;50.758;6.106;2023-07-30T01:21:34;98664.16;;;15.75;100.00
73151;BME280;61354;50.758;6.106;2023-07-30T01:23:59;98652.94;;;15.78;100.00
73151;BME280;61354;50.758;6.106;2023-07-30T01:26:30;98654.94;;;15.74;100.00
73151;BME280;61354;50.758;6.106;2023-07-30T01:29:00;98657.75;;;15.71;100.00
73151;BME280;61354;50.758;6.106;2023-07-30T01:31:27;98663.75;;;15.73;100.00
73151;BME280;61354;50.758;6.106;2023-07-30T01:33:55;98666.56;;;15.73;100.00
73151;BME280;61354;50.758;6.106;2023-07-30T01:36:21;98663.34;;;15.71;100.00
73151;BME280;61354;50.758;6.106;2023-07-30T01:38:49;98670.53;;;15.72;100.00
73151;BME280;61354;50.758;6.106;2023-07-30T01:41:15;98673.75;;;15.74;100.00
73151;BME280;61354;50.758;6.106;2023-07-30T01:43:41;98672.59;;;15.68;100.00
73151;BME280;61354;50.758;6.106;2023-07-30T01:46:06;98676.19;;;15.68;100.00
73151;BME280;61354;50.758;6.106;2023-07-30T01:48:32;98680.94;;;15.64;100.00
73151;BME280;61354;50.758;6.106;2023-07-30T01:50:57;98682.56;;;15.69;100.00
73151;BME280;61354;50.758;6.106;2023-07-30T01:53:23;98676.19;;;15.68;100.00
73151;BME280;61354;50.758;6.106;2023-07-30T01:55:49;98676.13;;;15.72;100.00
73151;BME280;61354;50.758;6.106;2023-07-30T01:58:14;98676.56;;;15.70;100.00
73151;BME280;61354;50.758;6.106;2023-07-30T02:00:40;98685.75;;;15.67;100.00
73151;BME280;61354;50.758;6.106;2023-07-30T02:03:06;98676.16;;;15.61;100.00
73151;BME280;61354;50.758;6.106;2023-07-30T02:05:32;98672.94;;;15.62;100.00
73151;BME280;61354;50.758;6.106;2023-07-30T02:07:58;98665.38;;;15.59;100.00
73151;BME280;61354;50.758;6.106;2023-07-30T02:10:25;98678.53;;;15.62;100.00
73151;BME280;61354;50.758;6.106;2023-07-30T02:12:51;98672.94;;;15.62;100.00
73151;BME280;61354;50.758;6.106;2023-07-30T02:15:16;98670.56;;;15.61;100.00
73151;BME280;61354;50.758;6.106;2023-07-30T02:17:42;98661.78;;;15.66;100.00
73151;BME280;61354;50.758;6.106;2023-07-30T02:20:08;98675.75;;;15.66;100.00
73151;BME280;61354;50.758;6.106;2023-07-30T02:22:34;98679.38;;;15.59;100.00
73151;BME280;61354;50.758;6.106;2023-07-30T02:25:00;98676.19;;;15.64;100.00
73151;BME280;61354;50.758;6.106;2023-07-30T02:27:25;98682.53;;;15.61;100.00
73151;BME280;61354;50.758;6.106;2023-07-30T02:29:51;98689.75;;;15.66;100.00
73151;BME280;61354;50.758;6.106;2023-07-30T02:32:16;98680.94;;;15.64;100.00
73151;BME280;61354;50.758;6.106;2023-07-30T02:34:42;98679.75;;;15.61;100.00
73151;BME280;61354;50.758;6.106;2023-07-30T02:37:07;98676.56;;;15.59;100.00
73151;BME280;61354;50.758;6.106;2023-07-30T02:39:33;98687.38;;;15.64;100.00
73151;BME280;61354;50.758;6.106;2023-07-30T02:41:58;98684.16;;;15.55;100.00
73151;BME280;61354;50.758;6.106;2023-07-30T02:44:24;98689.72;;;15.59;100.00
73151;BME280;61354;50.758;6.106;2023-07-30T02:46:50;98690.94;;;15.54;100.00
73151;BME280;61354;50.758;6.106;2023-07-30T02:49:15;98686.97;;;15.45;100.00
73151;BME280;61354;50.758;6.106;2023-07-30T02:51:41;98693.38;;;15.49;100.00
73151;BME280;61354;50.758;6.106;2023-07-30T02:54:08;98688.97;;;15.44;100.00
73151;BME280;61354;50.758;6.106;2023-07-30T02:56:35;98696.16;;;15.45;100.00
73151;BME280;61354;50.758;6.106;2023-07-30T02:59:01;98699.75;;;15.49;100.00
73151;BME280;61354;50.758;6.106;2023-07-30T03:01:27;98692.16;;;15.42;100.00
73151;BME280;61354;50.758;6.106;2023-07-30T03:03:52;98694.97;;;15.39;100.00
73151;BME280;61354;50.758;6.106;2023-07-30T03:06:18;98694.56;;;15.37;100.00
73151;BME280;61354;50.758;6.106;2023-07-30T03:08:43;98698.97;;;15.38;100.00
73151;BME280;61354;50.758;6.106;2023-07-30T03:11:09;98705.75;;;15.33;100.00
73151;BME280;61354;50.758;6.106;2023-07-30T03:13:35;98701.78;;;15.34;100.00
73151;BME280;61354;50.758;6.106;2023-07-30T03:16:00;98692.56;;;15.34;100.00
73151;BME280;61354;50.758;6.106;2023-07-30T03:18:26;98704.16;;;15.36;100.00
73151;BME280;61354;50.758;6.106;2023-07-30T03:20:52;98708.94;;;15.17;100.00
73151;BME280;61354;50.758;6.106;2023-07-30T03:23:22;98708.97;;;15.28;100.00
73151;BME280;61354;50.758;6.106;2023-07-30T03:25:47;98712.16;;;15.20;100.00
73151;BME280;61354;50.758;6.106;2023-07-30T03:28:13;98720.97;;;15.14;100.00
73151;BME280;61354;50.758;6.106;2023-07-30T03:30:38;98715.34;;;15.11;100.00
73151;BME280;61354;50.758;6.106;2023-07-30T03:33:04;98718.53;;;15.16;100.00
73151;BME280;61354;50.758;6.106;2023-07-30T03:35:30;98718.53;;;15.16;100.00
73151;BME280;61354;50.758;6.106;2023-07-30T03:37:55;98720.13;;;15.17;100.00
73151;BME280;61354;50.758;6.106;2023-07-30T03:40:21;98716.16;;;15.15;100.00
73151;BME280;61354;50.758;6.106;2023-07-30T03:42:46;98724.16;;;15.24;100.00
73151;BME280;61354;50.758;6.106;2023-07-30T03:45:12;98716.56;;;15.24;100.00
73151;BME280;61354;50.758;6.106;2023-07-30T03:47:37;98710.56;;;15.11;100.00
73151;BME280;61354;50.758;6.106;2023-07-30T03:50:03;98716.56;;;15.21;100.00
73151;BME280;61354;50.758;6.106;2023-07-30T03:52:29;98718.16;;;15.07;100.00
73151;BME280;61354;50.758;6.106;2023-07-30T03:54:54;98726.94;;;15.13;100.00
73151;BME280;61354;50.758;6.106;2023-07-30T03:57:20;98725.75;;;15.10;100.00
73151;BME280;61354;50.758;6.106;2023-07-30T03:59:45;98726.94;;;15.09;100.00
73151;BME280;61354;50.758;6.106;2023-07-30T04:02:11;98727.31;;;15.04;100.00
73151;BME280;61354;50.758;6.106;2023-07-30T04:04:41;98736.13;;;14.99;100.00
73151;BME280;61354;50.758;6.106;2023-07-30T04:07:09;98728.53;;;15.00;100.00
73151;BME280;61354;50.758;6.106;2023-07-30T04:09:34;98731.34;;;15.07;100.00
73151;BME280;61354;50.758;6.106;2023-07-30T04:12:00;98744.84;;;14.80;100.00
73151;BME280;61354;50.758;6.106;2023-07-30T04:14:25;98737.69;;;14.82;100.00
73151;BME280;61354;50.758;6.106;2023-07-30T04:16:51;98745.66;;;14.84;100.00
73151;BME280;61354;50.758;6.106;2023-07-30T04:19:16;98738.09;;;14.77;100.00
73151;BME280;61354;50.758;6.106;2023-07-30T04:21:42;98739.25;;;14.80;100.00
73151;BME280;61354;50.758;6.106;2023-07-30T04:24:07;98740.50;;;14.93;100.00
73151;BME280;61354;50.758;6.106;2023-07-30T04:26:33;98749.28;;;14.91;100.00
73151;BME280;61354;50.758;6.106;2023-07-30T04:28:58;98748.47;;;14.91;100.00
73151;BME280;61354;50.758;6.106;2023-07-30T04:31:24;98744.06;;;14.83;100.00
73151;BME280;61354;50.758;6.106;2023-07-30T04:33:49;98748.47;;;14.77;100.00
73151;BME280;61354;50.758;6.106;2023-07-30T04:36:15;98747.25;;;14.74;100.00
73151;BME280;61354;50.758;6.106;2023-07-30T04:38:41;98745.25;;;14.78;100.00
73151;BME280;61354;50.758;6.106;2023-07-30T04:41:06;98750.44;;;14.80;100.00
73151;BME280;61354;50.758;6.106;2023-07-30T04:43:32;98754.44;;;14.75;100.00
73151;BME280;61354;50.758;6.106;2023-07-30T04:45:58;98747.22;;;14.71;100.00
73151;BME280;61354;50.758;6.106;2023-07-30T04:48:23;98744.84;;;14.69;100.00
73151;BME280;61354;50.758;6.106;2023-07-30T04:50:49;98737.66;;;14.64;100.00
73151;BME280;61354;50.758;6.106;2023-07-30T04:53:14;98738.44;;;14.61;100.00
73151;BME280;61354;50.758;6.106;2023-07-30T04:55:41;98743.97;;;14.51;100.00
73151;BME280;61354;50.758;6.106;2023-07-30T04:58:07;98739.94;;;14.45;100.00
73151;BME280;61354;50.758;6.106;2023-07-30T05:00:32;98742.75;;;14.45;100.00
73151;BME280;61354;50.758;6.106;2023-07-30T05:02:58;98753.50;;;14.46;100.00
73151;BME280;61354;50.758;6.106;2023-07-30T05:05:23;98747.53;;;14.44;100.00
73151;BME280;61354;50.758;6.106;2023-07-30T05:07:50;98756.72;;;14.48;100.00
73151;BME280;61354;50.758;6.106;2023-07-30T05:10:15;98760.69;;;14.40;100.00
73151;BME280;61354;50.758;6.106;2023-07-30T05:12:41;98754.28;;;14.43;100.00
73151;BME280;61354;50.758;6.106;2023-07-30T05:15:07;98744.72;;;14.40;100.00
73151;BME280;61354;50.758;6.106;2023-07-30T05:17:33;98738.34;;;14.47;100.00
73151;BME280;61354;50.758;6.106;2023-07-30T05:19:59;98749.09;;;14.38;100.00
73151;BME280;61354;50.758;6.106;2023-07-30T05:22:24;98744.31;;;14.42;100.00
73151;BME280;61354;50.758;6.106;2023-07-30T05:24:50;98750.31;;;14.44;100.00
73151;BME280;61354;50.758;6.106;2023-07-30T05:27:16;98749.16;;;14.49;100.00
73151;BME280;61354;50.758;6.106;2023-07-30T05:29:42;98747.50;;;14.40;100.00
73151;BME280;61354;50.758;6.106;2023-07-30T05:32:08;98747.91;;;14.46;100.00
73151;BME280;61354;50.758;6.106;2023-07-30T05:34:34;98742.31;;;14.42;100.00
73151;BME280;61354;50.758;6.106;2023-07-30T05:37:01;98744.66;;;14.30;100.00
73151;BME280;61354;50.758;6.106;2023-07-30T05:39:26;98741.47;;;14.28;100.00
73151;BME280;61354;50.758;6.106;2023-07-30T05:41:52;98747.03;;;14.21;100.00
73151;BME280;61354;50.758;6.106;2023-07-30T05:44:17;98740.69;;;14.31;100.00
73151;BME280;61354;50.758;6.106;2023-07-30T05:46:43;98745.09;;;14.32;100.00
73151;BME280;61354;50.758;6.106;2023-07-30T05:49:08;98744.69;;;14.33;100.00
73151;BME280;61354;50.758;6.106;2023-07-30T05:51:34;98743.13;;;14.43;100.00
73151;BME280;61354;50.758;6.106;2023-07-30T05:54:00;98749.13;;;14.45;100.00
73151;BME280;61354;50.758;6.106;2023-07-30T05:56:25;98751.50;;;14.43;100.00
73151;BME280;61354;50.758;6.106;2023-07-30T05:58:51;98751.91;;;14.41;100.00
73151;BME280;61354;50.758;6.106;2023-07-30T06:01:16;98758.75;;;14.51;100.00
73151;BME280;61354;50.758;6.106;2023-07-30T06:03:42;98763.16;;;14.56;100.00
73151;BME280;61354;50.758;6.106;2023-07-30T06:06:08;98767.16;;;14.62;100.00
73151;BME280;61354;50.758;6.106;2023-07-30T06:08:33;98767.56;;;14.60;100.00
73151;BME280;61354;50.758;6.106;2023-07-30T06:11:02;98778.38;;;14.65;100.00
73151;BME280;61354;50.758;6.106;2023-07-30T06:13:29;98785.13;;;14.61;100.00
73151;BME280;61354;50.758;6.106;2023-07-30T06:15:54;98786.75;;;14.65;100.00
73151;BME280;61354;50.758;6.106;2023-07-30T06:18:20;98787.13;;;14.60;100.00
73151;BME280;61354;50.758;6.106;2023-07-30T06:20:46;98788.34;;;14.66;100.00
73151;BME280;61354;50.758;6.106;2023-07-30T06:23:12;98787.13;;;14.67;100.00
73151;BME280;61354;50.758;6.106;2023-07-30T06:25:37;98789.53;;;14.65;100.00
73151;BME280;61354;50.758;6.106;2023-07-30T06:28:05;98795.13;;;14.65;100.00
73151;BME280;61354;50.758;6.106;2023-07-30T06:30:32;98788.75;;;14.72;100.00
73151;BME280;61354;50.758;6.106;2023-07-30T06:32:58;98792.72;;;14.60;100.00
73151;BME280;61354;50.758;6.106;2023-07-30T06:35:23;98785.94;;;14.61;100.00
73151;BME280;61354;50.758;6.106;2023-07-30T06:37:50;98787.16;;;14.75;100.00
73151;BME280;61354;50.758;6.106;2023-07-30T06:40:16;98791.94;;;14.71;100.00
73151;BME280;61354;50.758;6.106;2023-07-30T06:42:41;98786.38;;;14.78;100.00
73151;BME280;61354;50.758;6.106;2023-07-30T06:45:07;98788.75;;;14.72;100.00
73151;BME280;61354;50.758;6.106;2023-07-30T06:47:33;98783.97;;;14.76;100.00
73151;BME280;61354;50.758;6.106;2023-07-30T06:49:59;98787.59;;;14.73;100.00
73151;BME280;61354;50.758;6.106;2023-07-30T06:52:24;98778.81;;;14.82;100.00
73151;BME280;61354;50.758;6.106;2023-07-30T06:54:50;98783.56;;;14.67;100.00
73151;BME280;61354;50.758;6.106;2023-07-30T06:57:15;98784.00;;;14.73;100.00
73151;BME280;61354;50.758;6.106;2023-07-30T06:59:41;98786.75;;;14.65;100.00
73151;BME280;61354;50.758;6.106;2023-07-30T07:02:07;98797.53;;;14.71;100.00
73151;BME280;61354;50.758;6.106;2023-07-30T07:04:32;98793.97;;;14.77;100.00
73151;BME280;61354;50.758;6.106;2023-07-30T07:06:58;98787.97;;;14.79;100.00
73151;BME280;61354;50.758;6.106;2023-07-30T07:09:24;98800.78;;;14.87;100.00
73151;BME280;61354;50.758;6.106;2023-07-30T07:11:49;98800.84;;;15.01;100.00
73151;BME280;61354;50.758;6.106;2023-07-30T07:14:15;98804.81;;;15.00;100.00
73151;BME280;61354;50.758;6.106;2023-07-30T07:16:41;98803.22;;;14.99;100.00
73151;BME280;61354;50.758;6.106;2023-07-30T07:19:06;98804.44;;;15.12;100.00
73151;BME280;61354;50.758;6.106;2023-07-30T07:21:32;98796.47;;;15.22;100.00
73151;BME280;61354;50.758;6.106;2023-07-30T07:23:58;98803.28;;;15.24;100.00
73151;BME280;61354;50.758;6.106;2023-07-30T07:26:23;98815.25;;;15.14;100.00
73151;BME280;61354;50.758;6.106;2023-07-30T07:28:49;98810.47;;;15.32;100.00
73151;BME280;61354;50.758;6.106;2023-07-30T07:31:14;98816.06;;;15.36;100.00
73151;BME280;61354;50.758;6.106;2023-07-30T07:33:40;98814.47;;;15.42;100.00
73151;BME280;61354;50.758;6.106;2023-07-30T07:36:07;98816.06;;;15.47;100.00
73151;BME280;61354;50.758;6.106;2023-07-30T07:38:34;98820.50;;;15.51;100.00
73151;BME280;61354;50.758;6.106;2023-07-30T07:41:00;98816.50;;;15.52;100.00
73151;BME280;61354;50.758;6.106;2023-07-30T07:43:26;98810.50;;;15.57;100.00
73151;BME280;61354;50.758;6.106;2023-07-30T07:45:52;98818.09;;;15.53;100.00
73151;BME280;61354;50.758;6.106;2023-07-30T07:48:17;98813.72;;;15.66;100.00
73151;BME280;61354;50.758;6.106;2023-07-30T07:50:43;98820.09;;;15.67;100.00
73151;BME280;61354;50.758;6.106;2023-07-30T07:53:09;98818.47;;;15.62;100.00
73151;BME280;61354;50.758;6.106;2023-07-30T07:55:34;98816.06;;;15.50;100.00
73151;BME280;61354;50.758;6.106;2023-07-30T07:58:00;98821.69;;;15.43;100.00
73151;BME280;61354;50.758;6.106;2023-07-30T08:00:25;98826.47;;;15.53;100.00
73151;BME280;61354;50.758;6.106;2023-07-30T08:02:51;98834.09;;;15.63;100.00
73151;BME280;61354;50.758;6.106;2023-07-30T08:05:17;98833.69;;;15.58;100.00
73151;BME280;61354;50.758;6.106;2023-07-30T08:07:45;98834.88;;;15.57;100.00
73151;BME280;61354;50.758;6.106;2023-07-30T08:10:11;98825.69;;;15.49;100.00
73151;BME280;61354;50.758;6.106;2023-07-30T08:12:36;98832.84;;;15.47;100.00
73151;BME280;61354;50.758;6.106;2023-07-30T08:15:02;98830.50;;;15.66;100.00
73151;BME280;61354;50.758;6.106;2023-07-30T08:17:28;98821.31;;;15.84;100.00
73151;BME280;61354;50.758;6.106;2023-07-30T08:19:53;98827.31;;;15.97;100.00
73151;BME280;61354;50.758;6.106;2023-07-30T08:22:19;98827.69;;;16.09;100.00
73151;BME280;61354;50.758;6.106;2023-07-30T08:24:44;98820.84;;;16.25;100.00
73151;BME280;61354;50.758;6.106;2023-07-30T08:27:10;98823.28;;;16.12;100.00
73151;BME280;61354;50.758;6.106;2023-07-30T08:29:36;98817.28;;;16.06;100.00
73151;BME280;61354;50.758;6.106;2023-07-30T08:32:01;98817.25;;;16.24;100.00
73151;BME280;61354;50.758;6.106;2023-07-30T08:34:27;98821.69;;;16.14;100.00
73151;BME280;61354;50.758;6.106;2023-07-30T08:36:52;98816.06;;;16.07;100.00
73151;BME280;61354;50.758;6.106;2023-07-30T08:39:18;98816.06;;;16.07;100.00
73151;BME280;61354;50.758;6.106;2023-07-30T08:41:43;98826.88;;;16.09;100.00
73151;BME280;61354;50.758;6.106;2023-07-30T08:44:09;98818.47;;;16.09;100.00
73151;BME280;61354;50.758;6.106;2023-07-30T08:46:35;98830.13;;;15.97;100.00
73151;BME280;61354;50.758;6.106;2023-07-30T08:49:00;98828.91;;;16.01;100.00
73151;BME280;61354;50.758;6.106;2023-07-30T08:51:26;98830.50;;;16.02;100.00
73151;BME280;61354;50.758;6.106;2023-07-30T08:53:52;98832.88;;;16.04;100.00
73151;BME280;61354;50.758;6.106;2023-07-30T08:56:18;98827.69;;;16.02;100.00
73151;BME280;61354;50.758;6.106;2023-07-30T08:58:44;98836.91;;;16.03;100.00
73151;BME280;61354;50.758;6.106;2023-07-30T09:01:12;98833.69;;;16.11;100.00
73151;BME280;61354;50.758;6.106;2023-07-30T09:03:39;98836.44;;;16.40;100.00
73151;BME280;61354;50.758;6.106;2023-07-30T09:06:05;98825.56;;;16.63;100.00
73151;BME280;61354;50.758;6.106;2023-07-30T09:08:31;98822.28;;;16.83;99.30
73151;BME280;61354;50.758;6.106;2023-07-30T09:11:06;98827.09;;;16.82;96.38
73151;BME280;61354;50.758;6.106;2023-07-30T09:13:39;98832.72;;;16.75;94.75
73151;BME280;61354;50.758;6.106;2023-07-30T09:16:12;98834.28;;;16.83;93.74
73151;BME280;61354;50.758;6.106;2023-07-30T09:18:42;98830.28;;;16.88;93.37
73151;BME280;61354;50.758;6.106;2023-07-30T09:21:10;98824.19;;;17.00;94.87
73151;BME280;61354;50.758;6.106;2023-07-30T09:23:53;98824.59;;;16.99;91.48
73151;BME280;61354;50.758;6.106;2023-07-30T09:26:19;98840.28;;;16.89;92.89
73151;BME280;61354;50.758;6.106;2023-07-30T09:28:44;98835.06;;;16.91;93.08
73151;BME280;61354;50.758;6.106;2023-07-30T09:31:10;98840.72;;;16.80;93.59
73151;BME280;61354;50.758;6.106;2023-07-30T09:33:40;98839.13;;;16.69;94.03
73151;BME280;61354;50.758;6.106;2023-07-30T09:36:07;98837.50;;;16.82;97.50
73151;BME280;61354;50.758;6.106;2023-07-30T09:38:39;98842.22;;;16.99;95.75
73151;BME280;61354;50.758;6.106;2023-07-30T09:41:05;98835.78;;;17.09;91.61
73151;BME280;61354;50.758;6.106;2023-07-30T09:43:34;98828.38;;;17.37;92.36
73151;BME280;61354;50.758;6.106;2023-07-30T09:46:04;98833.53;;;17.46;87.12
73151;BME280;61354;50.758;6.106;2023-07-30T09:48:34;98836.59;;;17.65;87.58
73151;BME280;61354;50.758;6.106;2023-07-30T09:51:03;98843.75;;;17.74;87.82
73151;BME280;61354;50.758;6.106;2023-07-30T09:53:33;98837.72;;;17.79;83.74
73151;BME280;61354;50.758;6.106;2023-07-30T09:56:04;98844.53;;;17.81;80.57
73151;BME280;61354;50.758;6.106;2023-07-30T09:58:31;98847.25;;;17.92;80.83
73151;BME280;61354;50.758;6.106;2023-07-30T10:01:00;98843.88;;;18.08;79.21
73151;BME280;61354;50.758;6.106;2023-07-30T10:03:28;98839.16;;;18.01;80.00
73151;BME280;61354;50.758;6.106;2023-07-30T10:05:58;98842.00;;;17.94;81.97
73151;BME280;61354;50.758;6.106;2023-07-30T10:08:29;98841.56;;;17.99;79.27
73151;BME280;61354;50.758;6.106;2023-07-30T10:10:57;98857.59;;;18.02;80.80
73151;BME280;61354;50.758;6.106;2023-07-30T10:13:24;98860.75;;;18.08;79.76
73151;BME280;61354;50.758;6.106;2023-07-30T10:15:51;98849.72;;;18.28;78.25
73151;BME280;61354;50.758;6.106;2023-07-30T10:18:18;98853.81;;;18.20;76.15
73151;BME280;61354;50.758;6.106;2023-07-30T10:21:02;98853.66;;;18.37;78.11
73151;BME280;61354;50.758;6.106;2023-07-30T10:23:32;98848.38;;;18.43;77.73
73151;BME280;61354;50.758;6.106;2023-07-30T10:25:58;98849.16;;;18.44;81.15
73151;BME280;61354;50.758;6.106;2023-07-30T10:28:31;98857.50;;;18.54;81.60
73151;BME280;61354;50.758;6.106;2023-07-30T10:31:03;98854.41;;;18.42;79.77
73151;BME280;61354;50.758;6.106;2023-07-30T10:33:54;98859.00;;;18.25;79.04
73151;BME280;61354;50.758;6.106;2023-07-30T10:36:44;98851.97;;;18.02;78.92
73151;BME280;61354;50.758;6.106;2023-07-30T10:41:39;98858.78;;;18.05;78.95
73151;BME280;61354;50.758;6.106;2023-07-30T10:44:05;98855.47;;;18.17;80.98
73151;BME280;61354;50.758;6.106;2023-07-30T10:46:31;98861.84;;;18.21;79.05
73151;BME280;61354;50.758;6.106;2023-07-30T10:48:57;98867.97;;;18.09;80.76
73151;BME280;61354;50.758;6.106;2023-07-30T10:51:23;98873.69;;;17.98;77.56
73151;BME280;61354;50.758;6.106;2023-07-30T10:53:50;98856.59;;;17.78;77.05
73151;BME280;61354;50.758;6.106;2023-07-30T10:56:22;98864.22;;;17.71;78.79
73151;BME280;61354;50.758;6.106;2023-07-30T10:58:51;98879.19;;;17.57;80.33
73151;BME280;61354;50.758;6.106;2023-07-30T11:01:17;98886.03;;;17.52;80.66
73151;BME280;61354;50.758;6.106;2023-07-30T11:03:42;98887.97;;;17.62;80.31
73151;BME280;61354;50.758;6.106;2023-07-30T11:06:08;98882.97;;;17.92;82.12
73151;BME280;61354;50.758;6.106;2023-07-30T11:08:38;98877.53;;;18.15;83.41
73151;BME280;61354;50.758;6.106;2023-07-30T11:11:05;98882.38;;;18.14;81.13
73151;BME280;61354;50.758;6.106;2023-07-30T11:13:39;98881.56;;;18.18;79.25
73151;BME280;61354;50.758;6.106;2023-07-30T11:16:07;98891.13;;;18.24;80.32
73151;BME280;61354;50.758;6.106;2023-07-30T11:18:33;98889.81;;;18.35;80.85
73151;BME280;61354;50.758;6.106;2023-07-30T11:21:06;98895.88;;;18.30;79.98
73151;BME280;61354;50.758;6.106;2023-07-30T11:23:33;98903.53;;;18.30;80.53
73151;BME280;61354;50.758;6.106;2023-07-30T11:26:01;98902.59;;;17.95;78.83
73151;BME280;61354;50.758;6.106;2023-07-30T11:31:02;98903.25;;;18.17;80.03
73151;BME280;61354;50.758;6.106;2023-07-30T11:33:29;98904.84;;;18.14;79.96
73151;BME280;61354;50.758;6.106;2023-07-30T11:35:55;98897.72;;;18.03;81.50
73151;BME280;61354;50.758;6.106;2023-07-30T11:38:25;98906.63;;;17.94;82.35
73151;BME280;61354;50.758;6.106;2023-07-30T11:40:55;98900.03;;;18.15;82.59
73151;BME280;61354;50.758;6.106;2023-07-30T11:43:21;98904.75;;;18.29;77.89
73151;BME280;61354;50.758;6.106;2023-07-30T11:45:48;98906.19;;;18.44;78.17
73151;BME280;61354;50.758;6.106;2023-07-30T11:48:14;98905.31;;;18.51;76.07
73151;BME280;61354;50.758;6.106;2023-07-30T11:50:50;98909.44;;;18.39;75.54
73151;BME280;61354;50.758;6.106;2023-07-30T11:53:18;98907.19;;;18.23;76.20
73151;BME280;61354;50.758;6.106;2023-07-30T11:55:44;98916.09;;;18.14;77.48
73151;BME280;61354;50.758;6.106;2023-07-30T11:58:11;98909.28;;;18.12;81.13
73151;BME280;61354;50.758;6.106;2023-07-30T12:00:39;98912.16;;;18.08;79.98
73151;BME280;61354;50.758;6.106;2023-07-30T12:03:07;98922.19;;;18.06;76.76
73151;BME280;61354;50.758;6.106;2023-07-30T12:05:38;98921.53;;;18.36;78.14
73151;BME280;61354;50.758;6.106;2023-07-30T12:08:05;98923.81;;;18.48;76.14
73151;BME280;61354;50.758;6.106;2023-07-30T12:10:48;98918.38;;;18.75;78.12
73151;BME280;61354;50.758;6.106;2023-07-30T12:13:16;98917.38;;;18.51;75.89
73151;BME280;61354;50.758;6.106;2023-07-30T12:15:44;98921.44;;;18.47;77.60
73151;BME280;61354;50.758;6.106;2023-07-30T12:18:10;98912.16;;;18.50;77.99
73151;BME280;61354;50.758;6.106;2023-07-30T12:20:35;98930.03;;;18.29;75.97
73151;BME280;61354;50.758;6.106;2023-07-30T12:23:01;98924.03;;;18.23;77.59
73151;BME280;61354;50.758;6.106;2023-07-30T12:25:28;98923.31;;;18.12;80.40
73151;BME280;61354;50.758;6.106;2023-07-30T12:27:54;98927.06;;;17.98;78.04
73151;BME280;61354;50.758;6.106;2023-07-30T12:30:19;98935.84;;;18.04;80.04
73151;BME280;61354;50.758;6.106;2023-07-30T12:32:45;98937.16;;;17.92;78.53
73151;BME280;61354;50.758;6.106;2023-07-30T12:35:10;98922.63;;;18.04;78.75
73151;BME280;61354;50.758;6.106;2023-07-30T12:37:36;98933.47;;;17.99;77.42
73151;BME280;61354;50.758;6.106;2023-07-30T12:40:02;98932.59;;;18.12;80.66
73151;BME280;61354;50.758;6.106;2023-07-30T12:42:29;98940.59;;;18.14;75.46
73151;BME280;61354;50.758;6.106;2023-07-30T12:44:55;98938.34;;;18.39;73.51
73151;BME280;61354;50.758;6.106;2023-07-30T12:47:20;98938.88;;;18.69;73.60
73151;BME280;61354;50.758;6.106;2023-07-30T12:49:46;98933.63;;;18.74;72.87
73151;BME280;61354;50.758;6.106;2023-07-30T12:52:11;98930.78;;;18.78;73.69
73151;BME280;61354;50.758;6.106;2023-07-30T12:54:37;98956.31;;;18.94;73.85